Time;durP1;ratioP1;P1;durP2;ratioP2;P2;SDS_P1;SDS_P2;PMS_P1;PMS_P2;Temp;Humidity;BMP_temperature;BMP_pressure;BME280_temperature;BME280_humidity;BME280_pressure;Samples;Min_cycle;Max_cycle;Signal;HPM_P1;HPM_P2
2022/11/22 00:00:18;;;;;;;62.20;21.55;;;;;;;;;;5055101;28;20056;-66
2022/11/22 00:02:45;;;;;;;53.42;21.38;;;;;;;;;;5054869;28;20549;-66
2022/11/22 00:05:11;;;;;;;52.35;20.73;;;;;;;;;;5055142;28;20416;-66
2022/11/22 00:07:37;;;;;;;56.08;21.45;;;;;;;;;;5054801;28;20040;-66
2022/11/22 00:10:08;;;;;;;59.88;21.48;;;;;;;;;;5054736;28;20037;-66
2022/11/22 00:12:34;;;;;;;51.63;19.40;;;;;;;;;;5054099;28;20049;-66
2022/11/22 00:15:00;;;;;;;50.88;19.98;;;;;;;;;;5054893;28;20389;-66
2022/11/22 00:17:26;;;;;;;52.20;18.92;;;;;;;;;;5088245;28;20103;-66
2022/11/22 00:19:52;;;;;;;53.08;19.55;;;;;;;;;;5054622;28;20045;-66
2022/11/22 00:22:18;;;;;;;50.33;19.85;;;;;;;;;;5054339;28;20052;-66
2022/11/22 00:24:45;;;;;;;49.90;18.40;;;;;;;;;;5037738;28;20044;-66
2022/11/22 00:27:11;;;;;;;47.70;17.65;;;;;;;;;;5038178;28;20041;-66
2022/11/22 00:29:37;;;;;;;51.05;18.60;;;;;;;;;;5054345;28;20061;-67
2022/11/22 00:32:04;;;;;;;45.53;17.83;;;;;;;;;;5054417;28;20040;-66
2022/11/22 00:34:30;;;;;;;44.53;18.60;;;;;;;;;;5054855;28;20095;-67
2022/11/22 00:36:56;;;;;;;44.25;17.55;;;;;;;;;;5037846;28;20037;-66
2022/11/22 00:39:22;;;;;;;44.03;17.50;;;;;;;;;;5054290;28;20033;-66
2022/11/22 00:41:48;;;;;;;49.10;18.13;;;;;;;;;;5032244;28;20040;-66
2022/11/22 00:44:14;;;;;;;43.70;18.13;;;;;;;;;;5055836;28;20486;-67
2022/11/22 00:46:40;;;;;;;51.20;20.25;;;;;;;;;;5054239;28;20515;-66
2022/11/22 00:49:06;;;;;;;42.88;17.50;;;;;;;;;;5037834;28;20444;-66
2022/11/22 00:51:32;;;;;;;42.92;17.55;;;;;;;;;;5053915;28;20053;-66
2022/11/22 00:53:58;;;;;;;40.22;17.05;;;;;;;;;;5037859;28;20120;-66
2022/11/22 00:56:24;;;;;;;40.10;16.48;;;;;;;;;;5055338;28;20041;-66
2022/11/22 00:58:50;;;;;;;45.33;18.10;;;;;;;;;;5054112;28;20033;-67
2022/11/22 01:01:16;;;;;;;50.58;17.80;;;;;;;;;;5053839;28;20060;-66
2022/11/22 01:03:43;;;;;;;41.00;17.17;;;;;;;;;;5053870;28;20144;-71
2022/11/22 01:06:09;;;;;;;41.67;16.50;;;;;;;;;;5037175;28;20048;-70
2022/11/22 01:08:35;;;;;;;36.97;16.02;;;;;;;;;;5053286;28;20131;-71
2022/11/22 01:11:01;;;;;;;43.53;16.50;;;;;;;;;;5053644;28;20033;-71
2022/11/22 01:13:28;;;;;;;44.50;16.65;;;;;;;;;;5053685;28;20052;-71
2022/11/22 01:15:58;;;;;;;36.38;15.18;;;;;;;;;;5053941;28;20049;-70
2022/11/22 01:18:25;;;;;;;40.75;16.95;;;;;;;;;;5037044;28;20044;-71
2022/11/22 01:20:51;;;;;;;42.65;17.73;;;;;;;;;;5053663;28;20045;-70
2022/11/22 01:23:17;;;;;;;36.00;16.35;;;;;;;;;;5054715;28;20083;-70
2022/11/22 01:25:43;;;;;;;41.70;16.55;;;;;;;;;;5053524;28;20045;-70
2022/11/22 01:28:10;;;;;;;43.72;16.40;;;;;;;;;;5053655;28;20059;-70
2022/11/22 01:30:36;;;;;;;32.92;14.98;;;;;;;;;;5053621;28;20481;-70
2022/11/22 01:33:02;;;;;;;40.58;16.55;;;;;;;;;;5052979;28;20098;-70
2022/11/22 01:35:28;;;;;;;35.58;16.25;;;;;;;;;;5054916;28;20044;-70
2022/11/22 01:37:54;;;;;;;40.88;16.27;;;;;;;;;;5053478;28;20037;-70
2022/11/22 01:40:20;;;;;;;38.47;16.48;;;;;;;;;;5053889;28;20125;-70
2022/11/22 01:42:46;;;;;;;38.42;14.43;;;;;;;;;;5052975;28;20457;-71
2022/11/22 01:45:31;;;;;;;35.05;15.52;;;;;;;;;;5036418;28;20043;-70
2022/11/22 01:48:03;;;;;;;39.97;15.55;;;;;;;;;;5052834;28;20051;-70
2022/11/22 01:50:31;;;;;;;36.25;15.50;;;;;;;;;;5053454;28;20036;-70
2022/11/22 01:53:00;;;;;;;33.60;15.05;;;;;;;;;;5052811;28;20048;-70
2022/11/22 01:55:26;;;;;;;35.97;15.52;;;;;;;;;;5053155;28;20057;-70
2022/11/22 01:57:52;;;;;;;34.15;15.20;;;;;;;;;;5052934;28;20135;-70
2022/11/22 02:00:18;;;;;;;40.15;17.75;;;;;;;;;;5037026;28;20413;-71
2022/11/22 02:02:52;;;;;;;36.17;15.35;;;;;;;;;;5052098;28;20044;-71
2022/11/22 02:05:20;;;;;;;35.30;16.30;;;;;;;;;;5053230;28;20080;-71
2022/11/22 02:07:55;;;;;;;37.10;16.35;;;;;;;;;;5052843;28;20123;-70
2022/11/22 02:10:22;;;;;;;35.13;15.50;;;;;;;;;;5016498;28;20052;-70
2022/11/22 02:12:50;;;;;;;39.50;16.05;;;;;;;;;;5047229;28;20051;-70
2022/11/22 02:15:16;;;;;;;33.30;16.83;;;;;;;;;;5052952;28;20095;-71
2022/11/22 02:17:42;;;;;;;39.42;16.77;;;;;;;;;;5052078;28;20045;-70
2022/11/22 02:20:08;;;;;;;34.65;16.25;;;;;;;;;;5052407;28;20442;-71
2022/11/22 02:22:47;;;;;;;42.10;16.45;;;;;;;;;;5052545;28;20037;-69
2022/11/22 02:25:19;;;;;;;34.83;15.88;;;;;;;;;;5052517;28;20045;-70
2022/11/22 02:27:45;;;;;;;37.70;17.15;;;;;;;;;;5053684;28;20043;-70
2022/11/22 02:30:11;;;;;;;38.75;16.23;;;;;;;;;;5053684;28;20511;-70
2022/11/22 02:32:37;;;;;;;33.03;15.52;;;;;;;;;;5035781;28;20076;-70
2022/11/22 02:35:16;;;;;;;35.85;16.05;;;;;;;;;;5052356;28;20051;-70
2022/11/22 02:37:42;;;;;;;37.17;16.05;;;;;;;;;;5052610;28;20044;-70
2022/11/22 02:40:08;;;;;;;35.92;14.90;;;;;;;;;;5076910;28;20041;-70
2022/11/22 02:42:35;;;;;;;34.00;15.00;;;;;;;;;;5043654;28;20155;-71
2022/11/22 02:45:01;;;;;;;33.10;15.30;;;;;;;;;;5052286;28;20033;-69
2022/11/22 02:47:27;;;;;;;39.25;16.63;;;;;;;;;;5052338;28;20037;-69
2022/11/22 02:49:53;;;;;;;37.42;15.82;;;;;;;;;;5052367;28;20037;-70
2022/11/22 02:52:20;;;;;;;35.88;16.15;;;;;;;;;;5052751;28;20124;-70
2022/11/22 02:54:46;;;;;;;31.73;15.60;;;;;;;;;;5052207;28;20052;-70
2022/11/22 02:57:12;;;;;;;37.70;17.13;;;;;;;;;;5051917;28;20073;-70
2022/11/22 02:59:38;;;;;;;29.95;15.25;;;;;;;;;;5051789;28;20076;-70
2022/11/22 03:02:05;;;;;;;38.33;16.02;;;;;;;;;;5051732;28;20120;-70
2022/11/22 03:04:31;;;;;;;35.30;16.38;;;;;;;;;;5051827;28;20041;-69
2022/11/22 03:06:58;;;;;;;37.92;17.05;;;;;;;;;;5051561;28;20489;-69
2022/11/22 03:09:25;;;;;;;34.65;16.55;;;;;;;;;;5051979;28;20041;-69
2022/11/22 03:11:51;;;;;;;38.17;15.98;;;;;;;;;;5052837;28;20119;-69
2022/11/22 03:14:17;;;;;;;34.67;17.10;;;;;;;;;;5050768;28;20128;-68
2022/11/22 03:16:44;;;;;;;39.45;17.20;;;;;;;;;;5052866;28;20037;-69
2022/11/22 03:19:10;;;;;;;37.17;17.80;;;;;;;;;;5035133;28;20041;-68
2022/11/22 03:21:37;;;;;;;36.65;17.15;;;;;;;;;;5051431;28;20040;-68
2022/11/22 03:24:04;;;;;;;31.67;16.33;;;;;;;;;;5051763;28;20127;-68
2022/11/22 03:26:30;;;;;;;38.97;18.23;;;;;;;;;;5051473;28;20524;-68
2022/11/22 03:28:56;;;;;;;38.42;18.55;;;;;;;;;;5052011;28;20033;-68
2022/11/22 03:31:22;;;;;;;37.83;17.15;;;;;;;;;;5051415;28;20043;-69
2022/11/22 03:33:48;;;;;;;32.95;17.25;;;;;;;;;;5051714;28;20052;-68
2022/11/22 03:36:14;;;;;;;37.95;18.30;;;;;;;;;;5034887;28;20049;-68
2022/11/22 03:38:40;;;;;;;37.08;17.48;;;;;;;;;;5035192;28;20128;-68
2022/11/22 03:41:06;;;;;;;40.60;18.00;;;;;;;;;;5051126;28;20041;-69
2022/11/22 03:43:32;;;;;;;42.13;19.02;;;;;;;;;;5062564;28;20120;-69
2022/11/22 03:45:58;;;;;;;34.83;17.40;;;;;;;;;;5052916;28;20132;-69
2022/11/22 03:48:24;;;;;;;45.10;18.58;;;;;;;;;;5052677;28;20095;-69
2022/11/22 03:50:51;;;;;;;41.80;17.88;;;;;;;;;;5051323;28;20052;-69
2022/11/22 03:53:17;;;;;;;33.70;17.20;;;;;;;;;;5051359;28;20045;-69
2022/11/22 03:55:43;;;;;;;37.35;17.85;;;;;;;;;;5051518;28;20087;-68
2022/11/22 03:58:09;;;;;;;35.78;17.65;;;;;;;;;;5052449;28;20096;-68
2022/11/22 04:00:35;;;;;;;38.00;17.40;;;;;;;;;;5051847;28;20045;-69
2022/11/22 04:03:02;;;;;;;33.20;16.70;;;;;;;;;;5051027;28;20119;-68
2022/11/22 04:05:28;;;;;;;36.47;17.58;;;;;;;;;;5052444;28;20592;-68
2022/11/22 04:07:57;;;;;;;33.72;17.23;;;;;;;;;;5050960;28;20037;-69
2022/11/22 04:10:23;;;;;;;43.47;18.67;;;;;;;;;;5051569;28;20045;-69
2022/11/22 04:12:49;;;;;;;33.30;17.08;;;;;;;;;;5052368;28;20504;-70
2022/11/22 04:15:15;;;;;;;38.80;17.75;;;;;;;;;;5034960;28;20080;-69
2022/11/22 04:17:43;;;;;;;38.85;17.73;;;;;;;;;;5050618;28;20509;-69
2022/11/22 04:23:00;;;;;;;34.05;16.83;;;;;;;;;;5050899;28;20480;-68
2022/11/22 04:25:27;;;;;;;38.85;18.52;;;;;;;;;;5055081;28;20037;-68
2022/11/22 04:27:53;;;;;;;38.20;17.73;;;;;;;;;;5054755;28;20049;-68
2022/11/22 04:30:19;;;;;;;44.88;18.05;;;;;;;;;;5054635;28;20040;-68
2022/11/22 04:32:45;;;;;;;34.35;17.13;;;;;;;;;;5054711;28;20048;-69
2022/11/22 04:35:12;;;;;;;37.70;17.63;;;;;;;;;;5038427;28;20045;-69
2022/11/22 04:37:38;;;;;;;37.30;18.17;;;;;;;;;;5055757;28;20626;-69
2022/11/22 04:40:05;;;;;;;30.83;16.58;;;;;;;;;;5054398;28;20041;-69
2022/11/22 04:45:16;;;;;;;37.08;17.42;;;;;;;;;;5054262;28;20559;-69
2022/11/22 04:48:00;;;;;;;34.90;17.08;;;;;;;;;;5055648;28;20194;-69
2022/11/22 04:53:15;;;;;;;33.20;16.77;;;;;;;;;;5040537;28;20048;-68
2022/11/22 04:55:41;;;;;;;39.75;19.33;;;;;;;;;;5055505;28;20037;-68
2022/11/22 04:58:08;;;;;;;34.95;17.23;;;;;;;;;;5037579;28;20033;-69
2022/11/22 05:00:34;;;;;;;33.80;17.45;;;;;;;;;;5037464;28;20037;-69
2022/11/22 05:03:00;;;;;;;31.90;17.52;;;;;;;;;;5054150;28;20044;-69
2022/11/22 05:05:27;;;;;;;31.83;16.75;;;;;;;;;;5053957;28;20033;-69
2022/11/22 05:07:53;;;;;;;37.38;17.92;;;;;;;;;;5053701;28;20211;-69
2022/11/22 05:10:19;;;;;;;34.95;18.67;;;;;;;;;;5054025;28;20040;-68
2022/11/22 05:12:45;;;;;;;38.88;18.25;;;;;;;;;;5054334;28;20127;-68
2022/11/22 05:15:11;;;;;;;32.72;17.50;;;;;;;;;;5053651;28;20052;-68
2022/11/22 05:17:37;;;;;;;35.25;17.38;;;;;;;;;;5053878;28;20056;-68
2022/11/22 05:20:07;;;;;;;36.75;17.23;;;;;;;;;;5053780;28;20045;-68
2022/11/22 05:25:18;;;;;;;36.65;17.50;;;;;;;;;;5053560;28;20044;-69
2022/11/22 05:27:44;;;;;;;35.60;16.40;;;;;;;;;;5053677;28;20032;-69
2022/11/22 05:30:10;;;;;;;37.20;17.73;;;;;;;;;;5037482;28;20033;-69
2022/11/22 05:32:36;;;;;;;33.47;16.95;;;;;;;;;;5053587;28;20556;-69
2022/11/22 05:35:02;;;;;;;29.17;16.45;;;;;;;;;;5053370;28;20048;-69
2022/11/22 05:37:28;;;;;;;40.00;16.63;;;;;;;;;;5052094;28;20045;-69
2022/11/22 05:39:54;;;;;;;34.47;16.48;;;;;;;;;;5036373;28;20045;-69
2022/11/22 05:42:20;;;;;;;39.10;17.15;;;;;;;;;;5053558;28;20123;-69
2022/11/22 05:44:47;;;;;;;41.13;16.73;;;;;;;;;;5054566;28;20044;-69
2022/11/22 05:47:13;;;;;;;31.95;16.63;;;;;;;;;;5053014;28;20052;-69
2022/11/22 05:49:39;;;;;;;33.17;17.55;;;;;;;;;;5036327;28;20099;-69
2022/11/22 05:52:05;;;;;;;33.45;16.60;;;;;;;;;;5052914;28;20498;-69
2022/11/22 05:54:31;;;;;;;32.08;16.45;;;;;;;;;;5054434;28;20068;-69
2022/11/22 05:56:57;;;;;;;36.00;17.02;;;;;;;;;;5053132;28;20040;-69
2022/11/22 05:59:23;;;;;;;38.25;16.45;;;;;;;;;;5053004;28;20040;-69
2022/11/22 06:01:50;;;;;;;33.22;16.23;;;;;;;;;;5053013;28;20146;-69
2022/11/22 06:04:16;;;;;;;30.88;15.35;;;;;;;;;;5036245;28;20045;-69
2022/11/22 06:06:42;;;;;;;35.42;17.00;;;;;;;;;;5052570;28;20041;-69
2022/11/22 06:09:08;;;;;;;39.50;16.52;;;;;;;;;;5052712;28;20045;-69
2022/11/22 06:11:34;;;;;;;36.38;16.30;;;;;;;;;;5036328;28;20048;-69
2022/11/22 06:14:04;;;;;;;36.30;16.75;;;;;;;;;;5052764;28;20496;-69
2022/11/22 06:16:30;;;;;;;35.58;16.40;;;;;;;;;;5052939;28;20041;-69
2022/11/22 06:18:56;;;;;;;31.45;15.65;;;;;;;;;;5052975;28;20109;-68
2022/11/22 06:21:24;;;;;;;37.97;15.40;;;;;;;;;;5052107;28;20420;-68
2022/11/22 06:23:54;;;;;;;29.45;15.57;;;;;;;;;;5052622;28;20040;-68
2022/11/22 06:26:20;;;;;;;33.95;15.55;;;;;;;;;;5035710;28;20573;-69
2022/11/22 06:28:48;;;;;;;38.67;16.00;;;;;;;;;;5052867;28;20045;-69
2022/11/22 06:31:15;;;;;;;29.23;15.73;;;;;;;;;;5053724;28;20044;-69
2022/11/22 06:33:41;;;;;;;30.05;14.60;;;;;;;;;;5035601;28;20147;-69
2022/11/22 06:36:12;;;;;;;25.10;14.73;;;;;;;;;;5052376;28;20074;-69
2022/11/22 06:38:38;;;;;;;37.00;14.48;;;;;;;;;;5052218;28;20090;-69
2022/11/22 06:41:08;;;;;;;33.47;14.57;;;;;;;;;;5052128;28;20045;-69
2022/11/22 06:43:35;;;;;;;33.78;14.57;;;;;;;;;;5053334;28;20041;-69
2022/11/22 06:46:02;;;;;;;42.80;14.50;;;;;;;;;;5052223;28;20121;-69
2022/11/22 06:48:29;;;;;;;29.25;14.07;;;;;;;;;;5070849;28;20041;-69
2022/11/22 06:50:59;;;;;;;35.08;14.77;;;;;;;;;;5017105;28;20084;-69
2022/11/22 06:53:27;;;;;;;30.00;14.35;;;;;;;;;;5035407;28;20040;-69
2022/11/22 06:55:58;;;;;;;30.48;13.50;;;;;;;;;;5053364;28;20045;-69
2022/11/22 06:58:25;;;;;;;39.65;13.80;;;;;;;;;;5053194;28;20040;-69
2022/11/22 07:00:51;;;;;;;30.20;12.35;;;;;;;;;;5051738;28;20051;-69
2022/11/22 07:03:17;;;;;;;28.35;13.63;;;;;;;;;;5051616;28;20041;-69
2022/11/22 07:05:52;;;;;;;34.60;13.60;;;;;;;;;;5051817;28;20044;-69
2022/11/22 07:08:18;;;;;;;28.50;13.02;;;;;;;;;;5055700;28;20041;-69
2022/11/22 07:10:45;;;;;;;25.17;12.45;;;;;;;;;;5055685;28;20065;-68
2022/11/22 07:13:11;;;;;;;35.30;12.27;;;;;;;;;;5055008;28;20036;-68
2022/11/22 07:15:37;;;;;;;25.55;11.48;;;;;;;;;;5042361;28;20048;-68
2022/11/22 07:18:03;;;;;;;30.35;13.00;;;;;;;;;;5055394;28;20076;-68
2022/11/22 07:20:29;;;;;;;25.92;11.02;;;;;;;;;;5058207;28;20136;-69
2022/11/22 07:22:55;;;;;;;22.70;10.90;;;;;;;;;;5062414;28;20068;-68
2022/11/22 07:25:21;;;;;;;32.53;10.90;;;;;;;;;;5063705;28;20041;-68
2022/11/22 07:27:47;;;;;;;32.88;10.85;;;;;;;;;;5067438;28;20036;-68
2022/11/22 07:30:13;;;;;;;30.13;11.65;;;;;;;;;;5059537;28;20432;-65
2022/11/22 07:32:40;;;;;;;32.28;11.35;;;;;;;;;;5054473;28;20174;-65
2022/11/22 07:35:06;;;;;;;29.73;11.20;;;;;;;;;;5052867;28;20044;-65
2022/11/22 07:37:32;;;;;;;25.42;10.15;;;;;;;;;;5085782;28;20174;-65
2022/11/22 07:39:58;;;;;;;30.52;9.55;;;;;;;;;;5051907;28;20527;-65
2022/11/22 07:42:24;;;;;;;23.95;9.68;;;;;;;;;;5052555;28;20393;-65
2022/11/22 07:44:50;;;;;;;30.05;9.80;;;;;;;;;;5035218;28;20094;-65
2022/11/22 07:47:16;;;;;;;23.00;10.00;;;;;;;;;;5052088;28;20091;-64
2022/11/22 07:49:42;;;;;;;30.52;10.35;;;;;;;;;;5052074;28;20049;-65
2022/11/22 07:52:08;;;;;;;20.05;9.57;;;;;;;;;;5051209;28;20084;-65
2022/11/22 07:54:34;;;;;;;24.30;8.93;;;;;;;;;;5018340;28;20045;-65
2022/11/22 07:57:01;;;;;;;23.55;9.15;;;;;;;;;;5051347;28;20049;-65
2022/11/22 07:59:27;;;;;;;21.35;7.80;;;;;;;;;;5052089;28;20087;-65
2022/11/22 08:01:53;;;;;;;18.23;8.77;;;;;;;;;;5071506;28;20045;-65
2022/11/22 08:04:19;;;;;;;22.45;7.82;;;;;;;;;;5038323;28;20044;-65
2022/11/22 08:06:45;;;;;;;23.15;7.40;;;;;;;;;;5054979;28;20124;-65
2022/11/22 08:09:11;;;;;;;14.05;6.75;;;;;;;;;;5054894;28;20433;-65
2022/11/22 08:11:37;;;;;;;16.83;6.40;;;;;;;;;;5056512;28;20037;-65
2022/11/22 08:14:03;;;;;;;21.52;7.75;;;;;;;;;;5055118;28;20037;-65
2022/11/22 08:16:29;;;;;;;29.55;6.45;;;;;;;;;;5055451;28;20508;-65
2022/11/22 08:18:55;;;;;;;17.75;5.95;;;;;;;;;;5054717;28;20048;-65
2022/11/22 08:21:21;;;;;;;20.88;6.95;;;;;;;;;;5055708;28;20067;-65
2022/11/22 08:23:48;;;;;;;21.25;6.45;;;;;;;;;;5038485;28;20401;-65
2022/11/22 08:26:15;;;;;;;20.33;6.88;;;;;;;;;;5054313;28;20401;-65
2022/11/22 08:28:41;;;;;;;25.08;7.45;;;;;;;;;;5068838;28;20037;-65
2022/11/22 08:31:09;;;;;;;21.30;7.00;;;;;;;;;;5038179;28;20063;-65
2022/11/22 08:33:35;;;;;;;24.40;6.50;;;;;;;;;;5054713;28;20124;-66
2022/11/22 08:36:01;;;;;;;12.15;5.57;;;;;;;;;;5054312;28;20044;-65
2022/11/22 08:38:27;;;;;;;22.73;6.10;;;;;;;;;;5054299;28;20063;-66
2022/11/22 08:40:54;;;;;;;20.05;6.53;;;;;;;;;;5054381;28;20120;-66
2022/11/22 08:43:20;;;;;;;22.45;6.25;;;;;;;;;;5054585;28;20477;-66
2022/11/22 08:45:48;;;;;;;15.30;6.20;;;;;;;;;;5054243;28;20037;-66
2022/11/22 08:48:14;;;;;;;18.00;6.07;;;;;;;;;;5056076;28;20120;-66
2022/11/22 08:50:40;;;;;;;12.30;5.68;;;;;;;;;;5054263;28;20098;-65
2022/11/22 08:53:06;;;;;;;16.85;6.38;;;;;;;;;;5054284;28;20057;-65
2022/11/22 08:55:32;;;;;;;23.48;6.43;;;;;;;;;;5054051;28;20040;-65
2022/11/22 08:58:01;;;;;;;14.32;5.97;;;;;;;;;;5054065;28;20037;-65
2022/11/22 09:00:27;;;;;;;15.15;5.75;;;;;;;;;;5037446;28;20052;-65
2022/11/22 09:02:53;;;;;;;18.38;6.03;;;;;;;;;;5054006;28;20571;-66
2022/11/22 09:05:19;;;;;;;18.27;5.80;;;;;;;;;;5052510;28;20374;-65
2022/11/22 09:07:45;;;;;;;20.88;5.50;;;;;;;;;;5037130;28;20171;-66
2022/11/22 09:10:12;;;;;;;16.45;6.07;;;;;;;;;;5054269;28;20076;-66
2022/11/22 09:12:38;;;;;;;21.52;6.35;;;;;;;;;;5054974;28;20033;-66
2022/11/22 09:15:04;;;;;;;22.05;5.97;;;;;;;;;;5037468;28;20041;-66
2022/11/22 09:17:30;;;;;;;18.80;6.28;;;;;;;;;;5053307;28;20044;-66
2022/11/22 09:19:56;;;;;;;20.42;6.03;;;;;;;;;;5053917;28;20509;-65
2022/11/22 09:22:22;;;;;;;19.65;5.55;;;;;;;;;;5053979;28;20049;-69
2022/11/22 09:24:48;;;;;;;14.13;5.30;;;;;;;;;;5055538;28;20052;-69
2022/11/22 09:27:14;;;;;;;12.20;5.47;;;;;;;;;;5054780;28;20072;-69
2022/11/22 09:29:40;;;;;;;16.90;6.03;;;;;;;;;;5055139;28;20037;-69
2022/11/22 09:32:09;;;;;;;21.27;5.95;;;;;;;;;;5053408;28;20048;-69
2022/11/22 09:34:35;;;;;;;12.55;5.32;;;;;;;;;;5055178;28;20053;-69
2022/11/22 09:37:01;;;;;;;15.13;5.22;;;;;;;;;;5035306;28;20037;-71
2022/11/22 09:39:27;;;;;;;19.63;6.18;;;;;;;;;;5053631;28;20045;-70
2022/11/22 09:41:59;;;;;;;15.32;5.35;;;;;;;;;;5053545;28;20041;-70
2022/11/22 09:44:37;;;;;;;19.30;6.03;;;;;;;;;;5053781;28;20072;-69
2022/11/22 09:47:17;;;;;;;14.63;5.53;;;;;;;;;;5053166;28;20333;-69
2022/11/22 09:49:43;;;;;;;16.63;5.95;;;;;;;;;;5053194;28;20386;-70
2022/11/22 09:52:18;;;;;;;19.38;5.50;;;;;;;;;;5054412;28;20595;-70
2022/11/22 09:54:53;;;;;;;15.75;5.55;;;;;;;;;;5053396;28;20497;-70
2022/11/22 09:57:23;;;;;;;15.05;5.28;;;;;;;;;;5036264;28;20041;-69
2022/11/22 09:59:54;;;;;;;20.15;5.50;;;;;;;;;;5053446;28;20055;-70
2022/11/22 10:02:24;;;;;;;21.08;5.68;;;;;;;;;;5052941;28;20041;-70
2022/11/22 10:04:50;;;;;;;16.52;5.22;;;;;;;;;;5053227;28;20131;-69
2022/11/22 10:07:37;;;;;;;14.15;5.35;;;;;;;;;;5086028;28;20037;-70
2022/11/22 10:10:11;;;;;;;15.88;5.35;;;;;;;;;;5052382;28;20508;-69
2022/11/22 10:12:37;;;;;;;16.90;5.45;;;;;;;;;;5029469;28;20037;-70
2022/11/22 10:15:22;;;;;;;11.00;5.38;;;;;;;;;;5052189;28;20045;-70
2022/11/22 10:17:51;;;;;;;16.50;4.97;;;;;;;;;;5052488;28;20492;-70
2022/11/22 10:20:18;;;;;;;15.68;5.30;;;;;;;;;;5053639;28;20033;-70
2022/11/22 10:22:45;;;;;;;17.27;5.32;;;;;;;;;;5051969;28;20044;-70
2022/11/22 10:25:40;;;;;;;11.77;4.88;;;;;;;;;;5052503;28;20082;-70
2022/11/22 10:28:13;;;;;;;17.48;5.78;;;;;;;;;;5031292;28;20075;-69
2022/11/22 10:30:42;;;;;;;11.68;5.00;;;;;;;;;;5053545;28;20037;-70
2022/11/22 10:33:35;;;;;;;19.38;5.60;;;5.60;99.90;;;;;;5035804;28;20044;-70
2022/11/22 10:36:08;;;;;;;13.10;4.82;;;;;;;;;;5041611;28;20435;-70
2022/11/22 10:38:34;;;;;;;10.52;4.93;;;;;;;;;;5035820;28;20489;-75
2022/11/22 10:41:15;;;;;;;10.52;4.43;;;;;;;;;;5052532;28;20123;-70
2022/11/22 10:43:56;;;;;;;12.23;4.97;;;;;;;;;;5053006;28;20096;-70
2022/11/22 10:46:27;;;;;;;10.73;4.55;;;;;;;;;;5051691;28;20037;-70
2022/11/22 10:49:05;;;;;;;13.18;4.32;;;;;;;;;;5051872;28;20079;-70
2022/11/22 10:51:34;;;;;;;14.50;4.78;;;;;;;;;;5051934;28;20053;-70
2022/11/22 10:54:06;;;;;;;10.35;4.47;;;;;;;;;;5035265;28;20049;-70
2022/11/22 10:56:42;;;;;;;12.55;4.18;;;;;;;;;;5051726;28;20048;-70
2022/11/22 10:59:36;;;;;;;10.88;4.43;;;5.90;99.90;;;;;;5052537;28;20040;-70
2022/11/22 11:02:08;;;;;;;10.95;4.13;;;;;;;;;;5073688;28;20048;-70
2022/11/22 11:04:36;;;;;;;16.00;4.95;;;;;;;;;;5051285;28;20121;-70
2022/11/22 11:07:04;;;;;;;14.48;4.18;;;;;;;;;;5052054;28;20414;-70
2022/11/22 11:09:42;;;;;;;21.25;5.03;;;;;;;;;;5034227;28;20043;-70
2022/11/22 11:12:27;;;;;;;9.90;3.92;;;;;;;;;;5049976;28;20039;-70
2022/11/22 11:14:56;;;;;;;11.18;4.15;;;;;;;;;;5049384;28;20110;-70
2022/11/22 11:17:34;;;;;;;15.85;4.05;;;;;;;;;;5050485;28;20049;-70
2022/11/22 11:20:03;;;;;;;17.17;4.68;;;;;;;;;;5050936;28;20044;-70
2022/11/22 11:22:31;;;;;;;17.63;4.32;;;;;;;;;;5074171;28;20040;-70
2022/11/22 11:25:17;;;;;;;15.52;4.93;;;;;;;;;;5051203;28;20033;-71
2022/11/22 11:27:44;;;;;;;13.88;4.35;;;;;;;;;;5049095;28;20033;-71
2022/11/22 11:30:11;;;;;;;14.18;4.38;;;;;;;;;;5051260;28;20033;-70
2022/11/22 11:32:51;;;;;;;14.50;4.80;;;;;;;;;;5050704;28;20041;-71
2022/11/22 11:35:19;;;;;;;10.63;4.00;;;;;;;;;;5053047;28;20063;-70
2022/11/22 11:37:45;;;;;;;16.10;4.40;;;;;;;;;;5054484;28;20120;-70
2022/11/22 11:40:29;;;;;;;18.33;6.22;;;;;;;;;;5038222;28;20036;-70
2022/11/22 11:43:15;;;;;;;20.35;7.15;;;;;;;;;;5053236;28;20095;-70
2022/11/22 11:45:41;;;;;;;17.77;4.70;;;;;;;;;;5055489;28;20041;-70
2022/11/22 11:48:29;;;;;;;11.77;3.60;;;;;;;;;;5055432;28;20072;-70
2022/11/22 11:51:28;;;;;;;12.55;3.53;;;;;;;;;;5055349;28;20120;-70
2022/11/22 11:54:09;;;;;;;15.18;4.20;;;;;;;;;;5027233;28;20045;-70
2022/11/22 11:56:50;;;;;;;11.80;4.68;;;;;;;;;;5088675;28;20045;-70
2022/11/22 11:59:18;;;;;;;10.75;4.32;;;;;;;;;;5051420;28;20504;-70
2022/11/22 12:01:50;;;;;;;12.25;4.47;;;;;;;;;;5055360;28;20051;-70
2022/11/22 12:04:21;;;;;;;12.48;4.53;;;;;;;;;;5055958;28;20052;-70
2022/11/22 12:07:17;;;;;;;7.18;3.20;;;;;;;;;;5054556;28;20036;-71
2022/11/22 12:09:44;;;;;;;9.90;3.45;;;;;;;;;;5026650;28;20054;-71
2022/11/22 12:12:36;;;;;;;16.75;3.60;;;;;;;;;;5052268;28;20554;-70
2022/11/22 12:15:21;;;;;;;14.52;3.42;;;;;;;;;;5039000;28;20045;-70
2022/11/22 12:18:10;;;;;;;11.00;3.75;;;;;;;;;;5055931;28;20195;-69
2022/11/22 12:20:41;;;;;;;13.90;4.78;;;;;;;;;;5052524;28;20052;-70
2022/11/22 12:23:12;;;;;;;10.30;3.35;;;;;;;;;;5056544;28;20099;-70
2022/11/22 12:25:39;;;;;;;13.45;3.45;;;;;;;;;;5055544;28;20110;-71
2022/11/22 12:28:18;;;;;;;7.47;3.70;;;;;;;;;;5057440;28;20263;-69
2022/11/22 12:30:46;;;;;;;7.88;3.38;;;;;;;;;;5055462;28;20040;-70
2022/11/22 12:33:42;;;;;;;12.88;3.72;;;6.60;99.90;;;;;;5055704;28;20048;-71
2022/11/22 12:36:20;;;;;;;11.68;3.75;;;;;;;;;;5040536;28;20562;-70
2022/11/22 12:38:47;;;;;;;10.15;4.00;;;;;;;;;;5054998;28;20056;-70
2022/11/22 12:41:15;;;;;;;9.15;3.40;;;;;;;;;;5054835;28;20076;-71
2022/11/22 12:43:55;;;;;;;9.57;3.65;;;;;;;;;;5038197;28;20124;-70
2022/11/22 12:46:41;;;;;;;8.90;3.45;;;;;;;;;;5051871;28;20041;-70
2022/11/22 12:49:15;;;;;;;7.72;3.38;;;;;;;;;;5054530;28;20040;-71
2022/11/22 12:51:53;;;;;;;10.15;3.10;;;;;;;;;;5047693;28;20136;-71
2022/11/22 12:54:22;;;;;;;11.82;3.03;;;;;;;;;;5036981;28;20045;-70
2022/11/22 12:56:55;;;;;;;11.32;3.67;;;;;;;;;;5053799;28;20477;-70
2022/11/22 12:59:34;;;;;;;7.82;3.08;;;;;;;;;;5054410;28;20106;-70
2022/11/22 13:02:04;;;;;;;5.78;2.90;;;;;;;;;;5054380;28;20124;-70
2022/11/22 13:05:09;;;;;;;12.50;3.20;;;6.80;99.90;;;;;;5054181;28;20051;-70
2022/11/22 13:07:35;;;;;;;12.32;3.40;;;;;;;;;;5033623;28;20051;-70
2022/11/22 13:10:05;;;;;;;13.73;3.40;;;;;;;;;;5053806;28;20086;-71
2022/11/22 13:12:33;;;;;;;8.60;3.03;;;;;;;;;;5037353;28;20539;-70
2022/11/22 13:15:00;;;;;;;6.72;2.88;;;;;;;;;;5055554;28;20094;-71
2022/11/22 13:17:29;;;;;;;9.93;3.20;;;;;;;;;;5054140;28;20050;-70
2022/11/22 13:19:58;;;;;;;7.28;2.95;;;;;;;;;;5051757;28;20037;-71
2022/11/22 13:22:31;;;;;;;9.73;3.03;;;;;;;;;;5035971;28;20059;-71
2022/11/22 13:25:20;;;;;;;12.18;3.53;;;;;;;;;;5034545;28;20056;-70
2022/11/22 13:27:49;;;;;;;10.18;2.88;;;;;;;;;;5051398;28;20059;-71
2022/11/22 13:30:19;;;;;;;9.13;3.13;;;;;;;;;;5036783;28;20060;-71
2022/11/22 13:32:48;;;;;;;11.55;3.13;;;;;;;;;;5053021;28;20047;-69
2022/11/22 13:35:14;;;;;;;9.88;3.00;;;;;;;;;;5053168;28;20499;-70
2022/11/22 13:37:42;;;;;;;14.25;3.28;;;;;;;;;;5037355;28;20044;-70
2022/11/22 13:40:15;;;;;;;9.50;3.17;;;;;;;;;;5053459;28;20036;-69
2022/11/22 13:42:41;;;;;;;7.88;3.83;;;;;;;;;;5085351;28;20048;-69
2022/11/22 13:45:20;;;;;;;9.70;3.10;;;;;;;;;;5036881;28;20048;-69
2022/11/22 13:47:47;;;;;;;11.30;3.47;;;;;;;;;;5054671;28;20385;-69
2022/11/22 13:50:32;;;;;;;14.95;3.92;;;;;;;;;;5052718;28;20039;-69
2022/11/22 13:52:58;;;;;;;7.85;3.55;;;;;;;;;;5048431;28;20061;-69
2022/11/22 13:55:29;;;;;;;17.83;5.50;;;;;;;;;;5052761;28;20114;-69
2022/11/22 13:57:55;;;;;;;12.52;3.20;;;;;;;;;;5051938;28;20366;-69
2022/11/22 14:00:21;;;;;;;7.68;2.95;;;;;;;;;;5036567;28;20048;-69
2022/11/22 14:02:50;;;;;;;11.93;3.10;;;;;;;;;;5052879;28;20078;-69
2022/11/22 14:05:18;;;;;;;12.00;3.10;;;;;;;;;;5036574;28;20094;-69
2022/11/22 14:07:45;;;;;;;11.48;3.53;;;;;;;;;;5054061;28;20393;-69
2022/11/22 14:10:32;;;;;;;16.40;3.50;;;7.10;99.90;;;;;;5053114;28;20469;-71
2022/11/22 14:13:14;;;;;;;9.77;3.20;;;;;;;;;;5052964;28;20190;-70
2022/11/22 14:15:47;;;;;;;8.32;2.88;;;;;;;;;;5052994;28;20045;-70
2022/11/22 14:18:22;;;;;;;8.90;2.83;;;;;;;;;;5054106;28;20051;-71
2022/11/22 14:21:01;;;;;;;12.73;2.85;;;;;;;;;;5048990;28;20061;-70
2022/11/22 14:23:34;;;;;;;8.48;3.17;;;;;;;;;;5048384;28;20060;-70
2022/11/22 14:26:11;;;;;;;10.98;3.05;;;;;;;;;;5049802;28;20036;-70
2022/11/22 14:29:07;;;;;;;15.15;2.80;;;6.90;99.90;;;;;;5031321;28;20049;-70
2022/11/22 14:31:34;;;;;;;7.75;2.50;;;;;;;;;;5032122;28;20040;-70
2022/11/22 14:34:33;;;;;;;6.45;2.50;;;;;;;;;;5031804;28;20396;-70
2022/11/22 14:37:14;;;;;;;8.43;2.85;;;;;;;;;;5062213;28;20136;-70
2022/11/22 14:39:43;;;;;;;13.90;2.80;;;;;;;;;;5048334;28;20497;-70
2022/11/22 14:42:28;;;;;;;5.50;2.50;;;;;;;;;;5050650;28;20052;-70
2022/11/22 14:44:55;;;;;;;10.27;3.65;;;;;;;;;;5049119;28;20076;-70